Time;durP1;ratioP1;P1;durP2;ratioP2;P2;SDS_P1;SDS_P2;PMS_P1;PMS_P2;Temp;Humidity;BMP_temperature;BMP_pressure;BME280_temperature;BME280_humidity;BME280_pressure;Samples;Min_cycle;Max_cycle;Signal;HPM_P1;HPM_P2
2023/11/21 00:01:08;;;;;;;3.22;0.70;;;;;;;10.07;100.00;100580.16;4994738;28;20469;-90
2023/11/21 00:03:34;;;;;;;2.78;0.68;;;;;;;9.98;100.00;100578.09;4993928;28;20030;-90
2023/11/21 00:06:00;;;;;;;5.50;1.25;;;;;;;10.10;100.00;100579.22;4994738;28;20028;-90
2023/11/21 00:08:25;;;;;;;3.85;0.65;;;;;;;10.00;100.00;100579.69;4994611;28;20120;-90
2023/11/21 00:10:51;;;;;;;4.82;0.90;;;;;;;10.04;100.00;100583.75;4994590;28;20493;-90
2023/11/21 00:13:16;;;;;;;4.45;0.90;;;;;;;9.99;100.00;100584.91;4993276;28;20552;-90
2023/11/21 00:15:42;;;;;;;5.80;0.90;;;;;;;10.06;100.00;100586.25;4994628;28;20046;-90
2023/11/21 00:18:07;;;;;;;2.35;0.75;;;;;;;10.04;100.00;100576.00;4994385;28;20030;-90
2023/11/21 00:20:32;;;;;;;4.03;0.85;;;;;;;10.16;100.00;100579.69;4994360;28;20023;-90
2023/11/21 00:22:59;;;;;;;2.67;0.60;;;;;;;10.10;100.00;100582.63;4992876;28;20109;-90
2023/11/21 00:25:24;;;;;;;3.70;0.90;;;;;;;10.10;100.00;100587.78;4994334;28;20094;-90
2023/11/21 00:27:50;;;;;;;2.10;0.65;;;;;;;10.07;100.00;100603.38;4994563;28;20034;-90
2023/11/21 00:30:15;;;;;;;3.85;0.75;;;;;;;10.08;100.00;100594.75;4994094;28;20030;-90
2023/11/21 00:32:41;;;;;;;3.03;0.90;;;;;;;10.05;100.00;100597.50;4994268;28;20030;-90
2023/11/21 00:35:07;;;;;;;2.20;0.63;;;;;;;10.20;100.00;100599.25;4994241;28;20029;-90
2023/11/21 00:37:32;;;;;;;4.07;0.80;;;;;;;10.20;100.00;100601.84;4994021;28;20057;-91
2023/11/21 00:39:58;;;;;;;1.75;0.52;;;;;;;10.25;100.00;100606.75;4992854;28;20030;-90
2023/11/21 00:42:23;;;;;;;2.88;0.88;;;;;;;10.20;100.00;100612.16;4994194;28;20030;-90
2023/11/21 00:44:48;;;;;;;3.95;0.80;;;;;;;10.14;100.00;100607.31;4992576;28;20465;-91
2023/11/21 00:47:14;;;;;;;9.55;1.25;;;;;;;10.18;100.00;100616.56;4993867;28;20393;-90
2023/11/21 00:49:39;;;;;;;5.30;0.75;;;;;;;10.13;100.00;100612.56;4993938;28;20041;-90
2023/11/21 00:52:05;;;;;;;3.33;0.80;;;;;;;10.19;100.00;100618.25;4993707;28;20033;-90
2023/11/21 00:54:30;;;;;;;3.03;0.75;;;;;;;10.18;100.00;100616.56;4993739;28;20551;-90
2023/11/21 00:56:56;;;;;;;4.75;0.75;;;;;;;10.14;100.00;100609.88;4992570;28;20026;-91
2023/11/21 00:59:23;;;;;;;1.60;0.50;;;;;;;10.05;100.00;100611.22;4992237;28;20054;-90
2023/11/21 01:01:48;;;;;;;5.97;0.85;;;;;;;9.98;100.00;100615.03;4993545;28;20109;-90
2023/11/21 01:04:13;;;;;;;4.15;0.60;;;;;;;10.14;100.00;100609.06;4992130;28;20109;-90
2023/11/21 01:06:39;;;;;;;2.10;0.63;;;;;;;10.07;100.00;100614.56;4993412;28;20113;-90
2023/11/21 01:09:08;;;;;;;3.72;0.80;;;;;;;10.10;100.00;100617.91;4993202;28;20027;-90
2023/11/21 01:11:37;;;;;;;2.92;0.70;;;;;;;9.96;100.00;100618.59;4993410;28;20018;-90
2023/11/21 01:14:03;;;;;;;3.25;1.00;;;;;;;9.89;100.00;100619.81;4993147;28;20026;-91
2023/11/21 01:16:29;;;;;;;4.30;2.25;;;;;;;10.00;100.00;100623.53;4993283;28;20041;-90
2023/11/21 01:18:54;;;;;;;9.57;1.02;;;;;;;9.85;100.00;100635.47;4993026;28;20465;-90
2023/11/21 01:21:19;;;;;;;6.45;0.98;;;;;;;9.83;100.00;100645.03;4993089;28;20030;-90
2023/11/21 01:23:45;;;;;;;4.50;0.68;;;;;;;9.89;100.00;100643.03;4993265;28;20026;-90
2023/11/21 01:26:10;;;;;;;4.60;1.13;;;;;;;10.04;100.00;100645.63;4993068;28;20472;-90
2023/11/21 01:28:35;;;;;;;2.72;0.65;;;;;;;9.83;100.00;100647.59;4992927;28;20370;-90
2023/11/21 01:31:01;;;;;;;2.70;0.60;;;;;;;9.95;100.00;100655.59;4992893;28;20389;-91
2023/11/21 01:33:26;;;;;;;1.85;0.75;;;;;;;9.97;100.00;100653.78;4992926;28;20405;-90
2023/11/21 01:35:54;;;;;;;4.03;0.65;;;;;;;10.01;100.00;100670.75;4992697;28;20395;-91
2023/11/21 01:38:20;;;;;;;5.50;0.68;;;;;;;10.00;100.00;100676.84;4991512;28;20473;-90
2023/11/21 01:40:45;;;;;;;3.20;0.90;;;;;;;9.96;100.00;100685.63;4992763;28;20041;-90
2023/11/21 01:43:10;;;;;;;3.40;0.65;;;;;;;10.00;100.00;100684.59;4992588;28;20058;-90
2023/11/21 01:45:36;;;;;;;3.20;0.90;;;;;;;9.90;100.00;100693.66;4993180;28;20027;-91
2023/11/21 01:48:02;;;;;;;2.08;0.50;;;;;;;9.93;100.00;100701.28;4992609;28;20073;-90
2023/11/21 01:50:28;;;;;;;1.80;0.47;;;;;;;9.98;100.00;100701.88;4991504;28;20362;-90
2023/11/21 01:52:54;;;;;;;1.00;0.60;;;;;;;9.93;100.00;100709.00;4991845;28;20030;-90
2023/11/21 01:55:20;;;;;;;3.63;0.68;;;;;;;10.00;100.00;100710.38;4992684;28;20045;-90
2023/11/21 01:57:46;;;;;;;5.15;0.73;;;;;;;9.95;100.00;100713.19;4992641;28;20477;-90
2023/11/21 02:00:15;;;;;;;2.58;0.63;;;;;;;9.96;100.00;100716.59;4992698;28;20065;-90
2023/11/21 02:02:44;;;;;;;1.08;0.50;;;;;;;10.05;100.00;100723.88;4992565;28;20030;-90
2023/11/21 02:05:18;;;;;;;1.40;0.75;;;;;;;10.00;100.00;100723.25;4992580;28;20030;-90
2023/11/21 02:07:43;;;;;;;2.58;1.15;;;;;;;9.93;100.00;100724.47;4992440;28;20026;-90
2023/11/21 02:10:09;;;;;;;1.60;0.82;;;;;;;10.00;100.00;100743.88;4992556;28;20033;-90
2023/11/21 02:12:35;;;;;;;3.35;1.33;;;;;;;10.00;100.00;100742.13;4992659;28;20481;-90
2023/11/21 02:15:09;;;;;;;3.53;1.10;;;;;;;9.93;100.00;100747.69;4992776;28;20054;-90
2023/11/21 02:17:35;;;;;;;3.58;1.15;;;;;;;9.97;100.00;100747.47;4992528;28;20109;-90
2023/11/21 02:20:00;;;;;;;3.60;1.27;;;;;;;10.04;100.00;100758.28;4992809;28;20101;-90
2023/11/21 02:22:32;;;;;;;2.35;1.30;;;;;;;10.07;100.00;100752.97;4992641;28;20026;-90
2023/11/21 02:24:57;;;;;;;4.85;2.45;;;;;;;9.96;100.00;100750.09;4991410;28;20500;-90
2023/11/21 02:27:24;;;;;;;2.05;1.20;;;;;;;9.95;100.00;100756.16;4993822;28;20066;-90
2023/11/21 02:29:49;;;;;;;3.83;1.50;;;;;;;9.95;100.00;100756.16;4996446;28;20030;-90
2023/11/21 02:32:16;;;;;;;3.88;1.50;;;;;;;10.10;100.00;100752.00;4995129;28;20030;-90
2023/11/21 02:34:43;;;;;;;2.42;1.60;;;;;;;10.02;100.00;100760.09;4995151;28;20374;-90
2023/11/21 02:37:08;;;;;;;3.10;2.03;;;;;;;10.03;100.00;100756.63;4996360;28;20036;-90
2023/11/21 02:39:34;;;;;;;4.28;2.38;;;;;;;10.05;100.00;100758.22;4996545;28;20117;-90
2023/11/21 02:41:59;;;;;;;4.57;2.13;;;;;;;10.01;100.00;100758.44;4996351;28;20068;-90
2023/11/21 02:44:26;;;;;;;3.80;2.17;;;;;;;10.07;100.00;100763.28;4996165;28;20027;-90
2023/11/21 02:46:51;;;;;;;4.28;2.40;;;;;;;9.98;100.00;100758.59;4996665;28;20026;-91
2023/11/21 02:49:16;;;;;;;7.63;2.42;;;;;;;9.94;100.00;100764.81;4996016;28;20049;-90
2023/11/21 02:51:42;;;;;;;4.03;2.42;;;;;;;10.04;100.00;100773.75;4996246;28;20052;-90
2023/11/21 02:54:08;;;;;;;5.07;2.20;;;;;;;9.99;100.00;100770.56;4996214;28;20084;-90
2023/11/21 02:56:33;;;;;;;3.03;2.40;;;;;;;10.01;100.00;100764.44;4994789;28;20081;-90
2023/11/21 02:59:00;;;;;;;5.03;2.53;;;;;;;10.09;100.00;100761.47;4994898;28;20401;-89
2023/11/21 03:01:27;;;;;;;5.60;2.38;;;;;;;10.16;100.00;100764.56;4995890;28;20036;-90
2023/11/21 03:03:53;;;;;;;4.13;2.65;;;;;;;10.14;100.00;100769.78;4994482;28;20039;-91
2023/11/21 03:06:21;;;;;;;5.70;2.80;;;;;;;9.97;100.00;100770.66;4995912;28;20034;-90
2023/11/21 03:08:47;;;;;;;5.25;2.83;;;;;;;9.95;100.00;100780.22;4996164;28;20025;-89
2023/11/21 03:11:13;;;;;;;4.72;3.38;;;;;;;9.97;100.00;100777.53;4995906;28;20026;-90
2023/11/21 03:13:41;;;;;;;4.78;3.15;;;;;;;10.02;100.00;100780.72;4995967;28;20033;-89
2023/11/21 03:16:11;;;;;;;6.13;3.13;;;;;;;9.99;100.00;100784.28;4996332;28;20073;-89
2023/11/21 03:18:37;;;;;;;4.95;2.70;;;;;;;10.00;100.00;100790.31;4996129;28;20034;-89
2023/11/21 03:21:04;;;;;;;5.30;3.67;;;;;;;10.05;100.00;100799.47;4996237;28;20445;-89
2023/11/21 03:23:30;;;;;;;11.23;5.30;;;;;;;10.05;100.00;100791.75;4995810;28;20030;-89
2023/11/21 03:25:55;;;;;;;7.40;3.60;;;;;;;10.00;100.00;100798.03;4994231;28;20022;-89
2023/11/21 03:28:20;;;;;;;5.20;3.50;;;;;;;9.97;100.00;100804.19;4994074;28;20072;-89
2023/11/21 03:30:46;;;;;;;8.02;3.85;;;;;;;10.03;100.00;100805.63;4995281;28;20030;-89
2023/11/21 03:33:12;;;;;;;9.95;3.75;;;;;;;10.06;100.00;100814.03;4995203;28;20022;-89
2023/11/21 03:35:37;;;;;;;6.38;3.90;;;;;;;10.05;100.00;100819.28;4995339;28;20054;-89
2023/11/21 03:38:03;;;;;;;5.88;3.60;;;;;;;10.07;100.00;100820.88;4993946;28;20061;-91
2023/11/21 03:40:28;;;;;;;7.75;3.50;;;;;;;9.98;100.00;100823.91;4995229;28;20085;-90
2023/11/21 03:42:53;;;;;;;4.32;3.40;;;;;;;10.06;100.00;100832.09;4995335;28;20019;-91
2023/11/21 03:45:19;;;;;;;3.33;2.80;;;;;;;10.02;100.00;100842.63;4995026;28;20026;-89
2023/11/21 03:47:44;;;;;;;4.90;2.63;;;;;;;10.01;100.00;100840.97;4993076;28;20073;-90
2023/11/21 03:50:09;;;;;;;3.58;2.83;;;;;;;10.08;100.00;100848.31;4993076;28;20088;-89
2023/11/21 03:52:35;;;;;;;5.10;2.72;;;;;;;10.05;100.00;100843.31;4994672;28;20056;-90
2023/11/21 03:55:02;;;;;;;10.45;3.80;;;;;;;10.03;100.00;100849.47;4993630;28;20109;-89
2023/11/21 03:57:27;;;;;;;5.72;3.75;;;;;;;10.01;100.00;100848.69;4994910;28;20026;-90
2023/11/21 03:59:53;;;;;;;4.13;3.72;;;;;;;10.11;100.00;100860.22;4994891;28;20423;-89
2023/11/21 04:02:19;;;;;;;4.40;3.78;;;;;;;10.07;100.00;100871.59;4995118;28;20030;-88
2023/11/21 04:04:44;;;;;;;4.85;3.92;;;;;;;10.07;100.00;100866.44;4994733;28;20030;-89
2023/11/21 04:07:10;;;;;;;4.90;4.28;;;;;;;10.02;100.00;100873.56;4994719;28;20113;-90
2023/11/21 04:09:36;;;;;;;7.25;5.75;;;;;;;10.11;100.00;100878.28;4994747;28;20019;-89
2023/11/21 04:12:02;;;;;;;5.82;5.05;;;;;;;10.02;100.00;100886.47;4994544;28;20031;-89
2023/11/21 04:14:27;;;;;;;6.80;5.25;;;;;;;9.92;100.00;100883.47;4994509;28;20050;-89
2023/11/21 04:16:53;;;;;;;9.75;6.60;;;;;;;9.88;100.00;100881.16;4993725;28;20054;-89
2023/11/21 04:19:19;;;;;;;8.13;6.07;;;;;;;9.94;100.00;100891.16;4994003;28;20477;-92
2023/11/21 04:21:44;;;;;;;7.70;5.95;;;;;;;9.94;100.00;100891.16;4993363;28;20027;-93
2023/11/21 04:24:10;;;;;;;6.25;5.63;;;;;;;9.94;100.00;100897.13;4992872;28;20030;-91
2023/11/21 04:26:36;;;;;;;7.63;5.47;;;;;;;9.95;100.00;100903.13;4994440;28;20027;-89
2023/11/21 04:29:01;;;;;;;6.20;5.00;;;;;;;9.76;100.00;100898.84;4994058;28;20073;-89
2023/11/21 04:31:27;;;;;;;7.50;6.25;;;;;;;9.76;100.00;100911.75;4994060;28;20023;-89
2023/11/21 04:33:52;;;;;;;6.82;5.03;;;;;;;9.74;100.00;100916.13;4994013;28;20032;-89
2023/11/21 04:36:17;;;;;;;5.18;4.43;;;;;;;9.78;100.00;100916.84;4994022;28;20026;-89
2023/11/21 04:38:43;;;;;;;8.05;4.50;;;;;;;9.77;100.00;100925.47;4994192;28;20030;-89
2023/11/21 04:41:09;;;;;;;3.78;3.42;;;;;;;9.68;100.00;100925.88;4994104;28;20160;-89
2023/11/21 04:43:34;;;;;;;3.75;3.28;;;;;;;9.76;100.00;100922.06;4993791;28;20109;-89
2023/11/21 04:46:00;;;;;;;3.25;2.67;;;;;;;9.67;100.00;100925.03;4994026;28;20491;-91
2023/11/21 04:48:27;;;;;;;3.55;2.50;;;;;;;9.63;100.00;100928.66;4993800;28;20081;-89
2023/11/21 04:50:52;;;;;;;3.83;2.40;;;;;;;9.63;100.00;100932.09;4992903;28;20542;-89
2023/11/21 04:53:17;;;;;;;2.83;2.30;;;;;;;9.57;100.00;100944.41;4992520;28;20045;-89
2023/11/21 04:55:43;;;;;;;2.78;1.95;;;;;;;9.55;100.00;100953.94;4989951;28;20060;-89
2023/11/21 04:58:09;;;;;;;2.33;1.75;;;;;;;9.40;100.00;100951.16;4991792;28;20038;-89
2023/11/21 05:00:36;;;;;;;2.05;1.25;;;;;;;9.34;100.00;100964.31;4992706;28;20031;-89
2023/11/21 05:03:02;;;;;;;1.63;1.20;;;;;;;9.35;100.00;100971.13;4993384;28;20029;-89
2023/11/21 05:05:27;;;;;;;1.67;1.10;;;;;;;9.38;100.00;100986.44;4993202;28;20035;-89
2023/11/21 05:07:53;;;;;;;1.90;1.10;;;;;;;9.39;100.00;100982.97;4993177;28;20030;-89
2023/11/21 05:10:19;;;;;;;1.45;0.90;;;;;;;9.38;100.00;100980.47;4993273;28;20064;-89
2023/11/21 05:12:44;;;;;;;1.00;0.73;;;;;;;9.39;100.00;100982.97;4992570;28;20053;-89
2023/11/21 05:15:14;;;;;;;1.77;0.77;;;;;;;9.28;100.00;100992.91;4993223;28;20038;-89
2023/11/21 05:17:43;;;;;;;0.80;0.77;;;;;;;9.25;100.00;100989.63;4992941;28;20030;-89
2023/11/21 05:20:12;;;;;;;0.55;0.45;;;;;;;9.28;100.00;101002.38;4993234;28;20077;-89
2023/11/21 05:22:37;;;;;;;1.00;0.70;;;;;;;9.20;100.00;101002.72;4993060;28;20014;-89
2023/11/21 05:25:03;;;;;;;1.10;0.65;;;;;;;9.23;100.00;101002.56;4992810;28;20030;-89
2023/11/21 05:27:31;;;;;;;3.67;1.05;;;;;;;9.13;100.00;101011.59;4992286;28;20041;-89
2023/11/21 05:29:57;;;;;;;0.85;0.68;;;;;;;9.16;100.00;101020.03;4992848;28;20477;-89
2023/11/21 05:32:23;;;;;;;0.90;0.70;;;;;;;9.15;100.00;101012.38;4992917;28;20109;-89
2023/11/21 05:34:49;;;;;;;1.25;0.65;;;;;;;9.10;100.00;101012.56;4992805;28;20105;-90
2023/11/21 05:37:14;;;;;;;0.82;0.60;;;;;;;9.07;100.00;101022.16;4992763;28;20118;-90
2023/11/21 05:39:40;;;;;;;0.60;0.60;;;;;;;9.06;100.00;101035.94;4991674;28;20045;-90
2023/11/21 05:42:06;;;;;;;0.95;0.60;;;;;;;9.10;100.00;101038.31;4991952;28;20042;-90
2023/11/21 05:44:31;;;;;;;2.20;0.85;;;;;;;9.02;100.00;101036.94;4992605;28;20080;-92
2023/11/21 05:46:58;;;;;;;1.48;0.70;;;;;;;9.00;100.00;101048.16;4992153;28;20117;-91
2023/11/21 05:49:26;;;;;;;1.88;0.65;;;;;;;8.99;100.00;101035.34;4991142;28;20485;-91
2023/11/21 05:51:53;;;;;;;1.45;0.68;;;;;;;9.08;100.00;101041.88;4992752;28;20022;-92
2023/11/21 05:54:19;;;;;;;1.10;1.00;;;;;;;8.98;100.00;101055.09;4992466;28;20030;-91
2023/11/21 05:56:44;;;;;;;2.55;1.23;;;;;;;8.92;100.00;101044.22;4992666;28;20030;-91
2023/11/21 05:59:10;;;;;;;1.92;1.10;;;;;;;8.90;100.00;101048.59;4992855;28;20029;-91
2023/11/21 06:01:38;;;;;;;1.77;1.10;;;;;;;8.83;100.00;101050.59;4990853;28;20030;-91
2023/11/21 06:04:03;;;;;;;1.35;0.75;;;;;;;8.85;100.00;101059.09;4991292;28;20313;-91
2023/11/21 06:06:29;;;;;;;3.17;0.85;;;;;;;8.76;100.00;101059.44;4992307;28;20038;-91
2023/11/21 06:08:55;;;;;;;1.80;0.88;;;;;;;8.81;100.00;101060.09;4991227;28;20026;-91
2023/11/21 06:11:20;;;;;;;3.33;0.90;;;;;;;8.77;100.00;101071.41;4992581;28;20030;-91
2023/11/21 06:13:46;;;;;;;1.80;1.08;;;;;;;8.78;100.00;101070.53;4992418;28;20549;-91
2023/11/21 06:16:14;;;;;;;1.17;0.63;;;;;;;8.78;100.00;101073.09;4992432;28;20026;-91
2023/11/21 06:18:40;;;;;;;1.85;0.80;;;;;;;8.88;100.00;101064.09;4992427;28;20054;-91
2023/11/21 06:21:06;;;;;;;2.08;0.73;;;;;;;8.87;100.00;101075.28;4992495;28;20030;-91
2023/11/21 06:23:31;;;;;;;0.95;0.70;;;;;;;8.93;100.00;101079.38;4992306;28;20022;-90
2023/11/21 06:25:57;;;;;;;1.65;0.70;;;;;;;8.83;100.00;101076.34;4992317;28;20085;-91
2023/11/21 06:28:22;;;;;;;1.95;0.80;;;;;;;8.84;100.00;101084.88;4991123;28;20022;-91
2023/11/21 06:30:48;;;;;;;0.75;0.75;;;;;;;8.78;100.00;101084.22;4991145;28;20030;-91
2023/11/21 06:33:14;;;;;;;3.17;0.75;;;;;;;8.74;100.00;101081.84;4991237;28;20030;-91
2023/11/21 06:35:39;;;;;;;4.63;0.70;;;;;;;8.74;100.00;101092.97;4992216;28;20110;-91
2023/11/21 06:38:05;;;;;;;2.33;0.93;;;;;;;8.67;100.00;101096.66;4992202;28;20598;-90
2023/11/21 06:40:31;;;;;;;5.70;0.68;;;;;;;8.65;100.00;101092.47;4992292;28;20041;-91
2023/11/21 06:42:58;;;;;;;1.45;0.52;;;;;;;8.64;100.00;101096.81;4992278;28;20030;-91
2023/11/21 06:45:23;;;;;;;1.38;0.57;;;;;;;8.66;100.00;101092.44;4992145;28;20106;-91
2023/11/21 06:47:49;;;;;;;0.47;0.40;;;;;;;8.61;100.00;101091.78;4991070;28;20117;-91
2023/11/21 06:50:14;;;;;;;1.88;0.43;;;;;;;8.59;100.00;101093.56;4991196;28;20061;-91
2023/11/21 06:52:40;;;;;;;2.08;0.40;;;;;;;8.62;100.00;101100.34;4992337;28;20073;-91
2023/11/21 06:55:08;;;;;;;2.75;0.50;;;;;;;8.59;100.00;101108.19;4992175;28;20026;-90
2023/11/21 06:57:33;;;;;;;0.57;0.30;;;;;;;8.63;100.00;101112.28;4990914;28;20022;-91
2023/11/21 06:59:59;;;;;;;2.85;0.60;;;;;;;8.53;100.00;101114.38;4992601;28;20030;-90
2023/11/21 07:02:24;;;;;;;1.98;0.50;;;;;;;8.50;100.00;101107.59;4992271;28;20031;-91
2023/11/21 07:04:50;;;;;;;0.70;0.40;;;;;;;8.61;100.00;101127.81;4992368;28;20110;-91
2023/11/21 07:07:15;;;;;;;0.85;0.40;;;;;;;8.59;100.00;101128.75;4992229;28;20401;-91
2023/11/21 07:09:40;;;;;;;1.48;0.40;;;;;;;8.49;100.00;101128.28;4992141;28;20038;-91
2023/11/21 07:12:07;;;;;;;0.95;0.50;;;;;;;8.60;100.00;101133.00;4992771;28;20477;-90
2023/11/21 07:14:34;;;;;;;1.80;0.40;;;;;;;8.58;100.00;101125.31;4995992;28;20077;-90
2023/11/21 07:16:59;;;;;;;2.85;0.38;;;;;;;8.70;100.00;101136.88;4986334;28;20037;-91
2023/11/21 07:19:24;;;;;;;1.02;0.50;;;;;;;8.71;100.00;101133.44;4994410;28;20026;-91
2023/11/21 07:21:53;;;;;;;1.00;0.40;;;;;;;8.60;100.00;101130.41;4995627;28;20258;-91
2023/11/21 07:24:18;;;;;;;1.95;0.68;;;;;;;8.66;100.00;101132.78;4994267;28;20539;-91
2023/11/21 07:26:44;;;;;;;2.65;0.85;;;;;;;8.69;100.00;101150.66;4995700;28;20038;-91
2023/11/21 07:29:11;;;;;;;2.25;0.75;;;;;;;8.63;100.00;101153.47;4995493;28;20027;-90
2023/11/21 07:31:38;;;;;;;2.65;0.93;;;;;;;8.59;100.00;101154.50;4995377;28;20034;-89
2023/11/21 07:34:03;;;;;;;1.55;1.20;;;;;;;8.64;100.00;101170.59;4994868;28;20069;-89
2023/11/21 07:36:28;;;;;;;2.22;1.20;;;;;;;8.57;100.00;101180.25;4993305;28;20503;-89
2023/11/21 07:38:54;;;;;;;2.25;0.88;;;;;;;8.56;100.00;101187.16;4994428;28;20099;-89
2023/11/21 07:41:20;;;;;;;1.67;0.93;;;;;;;8.57;100.00;101188.81;4992509;28;20026;-90
2023/11/21 07:43:46;;;;;;;2.72;1.08;;;;;;;8.61;100.00;101193.84;4992861;28;20019;-89
2023/11/21 07:46:12;;;;;;;1.55;0.80;;;;;;;8.67;100.00;101193.63;4992363;28;20463;-89
2023/11/21 07:48:38;;;;;;;2.13;0.73;;;;;;;8.56;100.00;101201.75;4993947;28;20030;-89
2023/11/21 07:51:04;;;;;;;4.13;0.80;;;;;;;8.64;100.00;101210.03;4994357;28;20041;-89
2023/11/21 07:53:30;;;;;;;1.42;0.82;;;;;;;8.64;100.00;101224.63;4994174;28;20026;-89
2023/11/21 07:55:58;;;;;;;1.88;0.65;;;;;;;8.69;100.00;101218.41;4993600;28;20034;-89
2023/11/21 07:58:23;;;;;;;1.92;0.85;;;;;;;8.76;100.00;101224.19;4993713;28;20040;-89
2023/11/21 08:00:50;;;;;;;1.20;0.43;;;;;;;8.84;100.00;101227.28;4994789;28;20031;-89
2023/11/21 08:03:15;;;;;;;0.80;0.43;;;;;;;8.71;100.00;101229.50;4994682;28;20436;-89
2023/11/21 08:05:41;;;;;;;2.25;0.60;;;;;;;8.71;100.00;101236.38;4994670;28;20062;-89
2023/11/21 08:08:07;;;;;;;1.20;0.50;;;;;;;8.79;100.00;101229.19;4994492;28;20444;-90
2023/11/21 08:10:33;;;;;;;4.88;1.00;;;;;;;8.75;100.00;101237.91;4994502;28;20041;-89
2023/11/21 08:12:58;;;;;;;2.25;0.60;;;;;;;8.82;100.00;101230.81;4994727;28;20384;-89
2023/11/21 08:15:24;;;;;;;5.35;0.50;;;;;;;8.77;100.00;101233.56;4994539;28;20525;-89
2023/11/21 08:17:49;;;;;;;1.73;0.98;;;;;;;8.79;100.00;101244.66;4994606;28;20084;-89
2023/11/21 08:20:16;;;;;;;1.70;0.40;;;;;;;8.81;100.00;101242.84;4993182;28;20080;-89
2023/11/21 08:22:44;;;;;;;1.25;0.40;;;;;;;8.84;100.00;101253.03;4994434;28;20026;-90
2023/11/21 08:25:10;;;;;;;2.47;0.40;;;;;;;8.92;100.00;101261.31;4992365;28;20033;-89
2023/11/21 08:27:35;;;;;;;5.35;0.32;;;;;;;8.89;100.00;101256.28;4994123;28;20381;-89
2023/11/21 08:30:02;;;;;;;1.63;0.32;;;;;;;8.97;100.00;101263.72;4994206;28;20057;-89
2023/11/21 08:32:27;;;;;;;1.30;0.30;;;;;;;8.81;100.00;101263.44;4994163;28;20072;-89
2023/11/21 08:34:53;;;;;;;1.52;0.40;;;;;;;8.88;100.00;101264.91;4993960;28;20492;-89
2023/11/21 08:37:18;;;;;;;3.20;0.40;;;;;;;8.93;100.00;101263.00;4994183;28;20357;-89
2023/11/21 08:39:44;;;;;;;1.23;0.40;;;;;;;8.88;100.00;101266.66;4993958;28;20412;-89
2023/11/21 08:42:09;;;;;;;1.30;0.35;;;;;;;8.92;100.00;101279.31;4994047;28;20080;-89
2023/11/21 08:44:35;;;;;;;3.88;0.30;;;;;;;8.99;100.00;101291.06;4993947;28;20037;-89
2023/11/21 08:47:00;;;;;;;1.63;0.50;;;;;;;8.98;100.00;101297.13;4993877;28;20033;-89
2023/11/21 08:49:30;;;;;;;1.40;0.38;;;;;;;8.94;100.00;101294.72;4992515;28;20041;-89
2023/11/21 08:51:55;;;;;;;3.90;0.40;;;;;;;8.85;100.00;101295.91;4993752;28;20109;-89
2023/11/21 08:54:21;;;;;;;2.97;0.65;;;;;;;8.98;100.00;101301.44;4993771;28;20101;-89
2023/11/21 08:56:46;;;;;;;1.42;0.40;;;;;;;8.94;100.00;101302.44;4993600;28;20034;-89
2023/11/21 08:59:14;;;;;;;0.95;0.20;;;;;;;9.06;100.00;101308.88;4993973;28;20022;-89
2023/11/21 09:01:39;;;;;;;1.38;0.22;;;;;;;9.06;100.00;101309.72;4993563;28;20109;-89
2023/11/21 09:04:05;;;;;;;5.35;0.32;;;;;;;9.06;100.00;101314.03;4992259;28;20173;-90
2023/11/21 09:06:30;;;;;;;0.98;0.30;;;;;;;9.10;100.00;101316.44;4993757;28;20427;-90
2023/11/21 09:08:56;;;;;;;1.67;0.50;;;;;;;9.06;100.00;101307.16;4993652;28;20031;-89
2023/11/21 09:11:21;;;;;;;1.98;0.50;;;;;;;9.00;100.00;101315.13;4993755;28;20022;-89
2023/11/21 09:13:46;;;;;;;2.90;0.32;;;;;;;9.05;100.00;101309.78;4993593;28;20054;-89
2023/11/21 09:16:13;;;;;;;3.30;0.57;;;;;;;9.17;100.00;101314.50;4993271;28;20029;-89
2023/11/21 09:18:39;;;;;;;1.23;0.30;;;;;;;9.18;100.00;101329.03;4993520;28;20026;-89
2023/11/21 09:21:05;;;;;;;2.95;0.40;;;;;;;9.38;100.00;101336.00;4991790;28;20026;-90
2023/11/21 09:23:30;;;;;;;5.05;0.50;;;;;;;9.29;100.00;101337.22;4992722;28;20026;-89
2023/11/21 09:25:57;;;;;;;1.70;0.20;;;;;;;9.32;100.00;101331.09;4993450;28;20029;-91
2023/11/21 09:28:22;;;;;;;4.53;0.70;;;;;;;9.30;100.00;101338.88;4993690;28;20117;-92
2023/11/21 09:30:50;;;;;;;0.52;0.30;;;;;;;9.32;100.00;101329.34;4992153;28;20026;-89
2023/11/21 09:33:15;;;;;;;2.28;0.65;;;;;;;9.29;100.00;101333.75;4992364;28;20022;-89
2023/11/21 09:35:40;;;;;;;1.70;0.47;;;;;;;9.43;100.00;101336.66;4992614;28;20109;-89
2023/11/21 09:38:10;;;;;;;5.25;0.85;;;;;;;9.51;100.00;101346.66;4992944;28;20106;-90
2023/11/21 09:40:37;;;;;;;2.28;0.70;;;;;;;9.61;100.00;101355.75;4991802;28;20022;-89
2023/11/21 09:43:15;;;;;;;4.25;0.50;;;;;;;9.67;100.00;101352.09;4992731;28;20045;-89
2023/11/21 09:45:45;;;;;;;1.73;0.50;;;;;;;9.75;100.00;101360.34;4992841;28;20401;-88
2023/11/21 09:48:11;;;;;;;1.17;0.40;;;;;;;9.87;100.00;101362.44;4992795;28;20100;-88
2023/11/21 09:50:37;;;;;;;2.67;0.70;;;;;;;9.52;100.00;101363.84;4991979;28;20101;-89
2023/11/21 09:53:23;;;;;;;1.75;0.47;;;;;;;9.62;100.00;101378.03;4992763;28;20034;-89
2023/11/21 09:55:52;;;;;;;2.63;0.40;;;;;;;9.60;100.00;101374.69;4991623;28;20114;-90
2023/11/21 09:58:19;;;;;;;1.15;0.98;;;;;;;9.52;100.00;101363.84;4992624;28;20037;-89
2023/11/21 10:00:48;;;;;;;3.50;0.82;;;;;;;9.69;100.00;101368.34;4992713;28;20026;-89
2023/11/21 10:03:15;;;;;;;3.90;0.50;;;;;;;9.64;100.00;101368.50;4993050;28;20045;-89
2023/11/21 10:05:47;;;;;;;2.92;0.70;;;;;;;9.54;100.00;101367.19;4992188;28;20097;-90
2023/11/21 10:08:13;;;;;;;4.10;0.60;;;;;;;9.70;100.00;101376.00;4993368;28;20033;-90
2023/11/21 10:10:47;;;;;;;1.90;0.82;;;;;;;9.77;100.00;101376.59;4992491;28;20037;-91
2023/11/21 10:13:16;;;;;;;3.13;0.55;;;;;;;9.82;100.00;101377.25;4991492;28;20073;-90
2023/11/21 10:15:48;;;;;;;5.57;0.82;;;;;;;9.79;100.00;101372.22;4991294;28;20030;-91
2023/11/21 10:18:15;;;;;;;3.38;1.02;;;;;;;9.63;100.00;101387.44;4991473;28;20479;-90
2023/11/21 10:20:41;;;;;;;2.22;0.70;;;;;;;9.70;100.00;101383.72;4990461;28;20058;-89
2023/11/21 10:23:11;;;;;;;5.22;1.00;;;;;;;9.68;100.00;101384.69;4991030;28;20393;-89
2023/11/21 10:25:37;;;;;;;3.03;0.60;;;;;;;9.64;100.00;101382.25;4990825;28;20432;-92
2023/11/21 10:28:06;;;;;;;2.30;0.82;;;;;;;9.81;100.00;101397.06;4990954;28;20055;-91
2023/11/21 10:30:36;;;;;;;3.08;0.70;;;;;;;9.99;100.00;101390.31;4989672;28;20031;-91
2023/11/21 10:33:02;;;;;;;4.15;0.90;;;;;;;10.02;100.00;101390.22;4989507;28;20029;-90
2023/11/21 10:35:54;;;;;;;6.63;1.05;;;;;;;10.14;100.00;101399.19;4990559;28;20026;-90
2023/11/21 10:38:24;;;;;;;;;;;;;;;10.03;100.00;101403.97;4990447;28;20041;-89
2023/11/21 10:40:50;;;;;;;3.58;1.20;;;;;;;10.16;100.00;101399.97;4992002;28;20017;-93
2023/11/21 10:43:16;;;;;;;2.28;0.75;;;;;;;10.08;100.00;101413.19;4992084;28;20026;-93
2023/11/21 10:45:42;;;;;;;1.38;0.52;;;;;;;10.08;100.00;101420.09;4990365;28;20085;-91
2023/11/21 10:48:16;;;;;;;2.60;0.70;;;;;;;10.11;100.00;101416.53;4992617;28;20034;-92
2023/11/21 10:50:42;;;;;;;2.60;0.60;;;;;;;9.92;100.00;101412.09;4995196;28;20054;-91
2023/11/21 10:53:08;;;;;;;2.65;0.90;;;;;;;9.89;100.00;101414.81;4992279;28;20042;-92
2023/11/21 10:55:34;;;;;;;2.33;0.77;;;;;;;10.03;100.00;101422.00;4996002;28;20030;-94
2023/11/21 10:58:03;;;;;;;1.40;0.98;;;;;;;9.92;100.00;101425.00;4995257;28;20034;-91
2023/11/21 11:00:29;;;;;;;1.42;0.75;;;;;;;9.91;100.00;101427.66;4994871;28;20022;-94
2023/11/21 11:02:55;;;;;;;3.00;0.93;;;;;;;10.03;100.00;101428.00;4993593;28;20030;-93
2023/11/21 11:05:23;;;;;;;3.97;1.10;;;;;;;10.09;100.00;101437.22;4994112;28;20066;-92
2023/11/21 11:07:54;;;;;;;4.50;1.00;;;;;;;10.01;100.00;101423.81;4993762;28;20026;-92
2023/11/21 11:10:22;;;;;;;4.17;1.00;;;;;;;9.90;100.00;101429.41;4992411;28;20088;-93
2023/11/21 11:12:48;;;;;;;2.13;0.98;;;;;;;9.66;100.00;101426.00;4993191;28;20026;-94
2023/11/21 11:15:16;;;;;;;2.28;0.82;;;;;;;9.89;100.00;101421.72;4992507;28;20022;-94
2023/11/21 11:17:44;;;;;;;4.90;1.00;;;;;;;9.82;100.00;101427.09;4992955;28;20026;-93